Neponset, Illinois
Current Conditions -  °F | °C
As of 11:35 AM on Friday 21 Nov 2014 (Local Time) from KC75 Reporting Station
Clear Clear  
Wind Chill: 21°   Ceiling: Unl
Heat Index: 30°   Visibility: 10mi
Dew Point:   Wind: 12mph
Humidity: 29%   Direction: 170°S
Pressure: 30.41"   Gusts: NA
Location:  41.3°N, 89.79°W
Report Text: KC75 211735Z AUTO 17010KT 10SM CLR M01/M17 A3041 RMK AO2 T10091169
Loading
Personal Weather Stations






























Interactive Weather Map New forecast layout! Learn more

10-Day Weather Forecast

Advertisements
Track Severe Weather on mobile